Time;durP1;ratioP1;P1;durP2;ratioP2;P2;SDS_P1;SDS_P2;PMS_P1;PMS_P2;Temp;Humidity;BMP_temperature;BMP_pressure;BME280_temperature;BME280_humidity;BME280_pressure;Samples;Min_cycle;Max_cycle;Signal;HPM_P1;HPM_P2
2023/02/23 00:00:20;;;;;;;2.30;0.40;;;19.50;68.90;;;;;;4973376;28;20018;-75
2023/02/23 00:02:49;;;;;;;1.77;0.50;;;19.50;69.10;;;;;;4992990;28;20030;-75
2023/02/23 00:05:16;;;;;;;2.13;0.40;;;19.50;69.20;;;;;;4994211;28;20030;-76
2023/02/23 00:07:43;;;;;;;0.90;0.43;;;19.40;69.20;;;;;;4993152;28;20029;-76
2023/02/23 00:10:11;;;;;;;1.30;0.40;;;19.40;69.30;;;;;;4978650;28;20019;-76
2023/02/23 00:12:37;;;;;;;1.90;0.50;;;19.40;69.20;;;;;;4973446;28;20034;-75
2023/02/23 00:15:03;;;;;;;2.88;0.50;;;19.30;69.20;;;;;;4974368;28;20023;-75
2023/02/23 00:17:30;;;;;;;1.45;0.50;;;19.40;69.30;;;;;;4973314;28;20026;-76
2023/02/23 00:19:57;;;;;;;1.20;0.50;;;19.30;69.20;;;;;;4974613;28;20018;-75
2023/02/23 00:22:24;;;;;;;1.40;0.60;;;19.30;69.30;;;;;;4974410;28;20046;-76
2023/02/23 00:24:49;;;;;;;1.20;0.50;;;19.30;69.30;;;;;;4973310;28;20026;-75
2023/02/23 00:27:19;;;;;;;0.73;0.43;;;19.20;69.30;;;;;;4974195;28;20500;-75
2023/02/23 00:29:48;;;;;;;2.83;0.68;;;19.20;69.40;;;;;;4973538;28;20413;-75
2023/02/23 00:32:18;;;;;;;2.05;0.52;;;19.20;69.40;;;;;;4973113;28;20409;-75
2023/02/23 00:34:47;;;;;;;1.55;0.40;;;19.20;69.40;;;;;;4973042;28;20027;-75
2023/02/23 00:37:13;;;;;;;1.73;0.50;;;19.20;69.50;;;;;;4957398;28;20401;-75
2023/02/23 00:39:39;;;;;;;0.30;0.30;;;19.10;69.50;;;;;;4973110;28;20503;-75
2023/02/23 00:42:05;;;;;;;0.93;0.50;;;19.10;69.50;;;;;;4974188;28;20110;-75
2023/02/23 00:44:32;;;;;;;0.60;0.38;;;19.10;69.60;;;;;;4974247;28;20026;-75
2023/02/23 00:46:59;;;;;;;1.35;0.60;;;19.10;69.60;;;;;;4972971;28;20037;-75
2023/02/23 00:49:24;;;;;;;0.65;0.30;;;19.00;69.60;;;;;;4972624;28;20041;-75
2023/02/23 00:51:51;;;;;;;1.20;0.38;;;19.00;69.70;;;;;;4972936;28;20121;-75
2023/02/23 00:54:16;;;;;;;3.60;0.65;;;19.00;69.70;;;;;;4972990;28;20026;-75
2023/02/23 00:56:42;;;;;;;2.60;0.50;;;19.00;69.70;;;;;;4972808;28;20457;-75
2023/02/23 00:59:08;;;;;;;2.42;0.45;;;19.00;69.80;;;;;;4974213;28;20030;-75
2023/02/23 01:01:33;;;;;;;1.02;0.35;;;18.90;69.70;;;;;;4983069;28;20389;-75
2023/02/23 01:04:00;;;;;;;1.25;0.40;;;18.90;69.80;;;;;;4993409;28;20046;-75
2023/02/23 01:06:26;;;;;;;0.98;0.50;;;18.90;69.90;;;;;;4992303;28;20053;-75
2023/02/23 01:08:55;;;;;;;0.75;0.52;;;18.90;69.80;;;;;;4988328;28;20473;-75
2023/02/23 01:11:29;;;;;;;1.85;0.50;;;18.90;69.90;;;;;;4973934;28;20031;-75
2023/02/23 01:13:56;;;;;;;1.25;0.65;;;18.80;69.80;;;;;;4957641;28;20030;-75
2023/02/23 01:16:26;;;;;;;2.35;0.38;;;18.80;69.90;;;;;;4956795;28;20035;-76
2023/02/23 01:18:52;;;;;;;0.47;0.32;;;18.80;69.90;;;;;;4974109;28;20023;-75
2023/02/23 01:21:20;;;;;;;0.80;0.43;;;18.80;69.90;;;;;;4972277;28;20065;-75
2023/02/23 01:23:46;;;;;;;1.48;0.63;;;18.80;70.00;;;;;;4956826;28;20015;-76
2023/02/23 01:26:19;;;;;;;1.30;0.50;;;18.80;70.10;;;;;;4973562;28;20041;-75
2023/02/23 01:28:51;;;;;;;0.85;0.50;;;18.70;70.10;;;;;;4973959;28;20022;-75
2023/02/23 01:31:17;;;;;;;1.38;0.57;;;18.70;70.10;;;;;;4974019;28;20031;-75
2023/02/23 01:33:43;;;;;;;2.80;0.40;;;18.70;70.10;;;;;;4973729;28;20588;-75
2023/02/23 01:36:09;;;;;;;0.57;0.43;;;18.70;70.10;;;;;;4973717;28;20058;-76
2023/02/23 01:38:34;;;;;;;0.85;0.22;;;18.60;70.10;;;;;;4972380;28;20027;-76
2023/02/23 01:41:00;;;;;;;0.45;0.40;;;18.60;70.20;;;;;;4973634;28;20038;-75
2023/02/23 01:43:25;;;;;;;0.70;0.30;;;18.50;70.10;;;;;;4972367;28;20027;-76
2023/02/23 01:45:55;;;;;;;0.98;0.43;;;18.50;70.20;;;;;;4973947;28;20110;-75
2023/02/23 01:48:27;;;;;;;0.68;0.40;;;18.50;70.30;;;;;;4972458;28;20026;-75
2023/02/23 01:51:00;;;;;;;1.70;0.60;;;18.50;70.30;;;;;;4972399;28;20034;-75
2023/02/23 01:53:28;;;;;;;1.10;0.40;;;18.50;70.30;;;;;;4973393;28;20093;-75
2023/02/23 01:55:57;;;;;;;0.32;0.32;;;18.50;70.40;;;;;;4972286;28;20499;-75
2023/02/23 01:58:23;;;;;;;0.80;0.40;;;18.40;70.30;;;;;;4972571;28;20093;-75
2023/02/23 02:00:56;;;;;;;0.68;0.40;;;18.40;70.50;;;;;;4962280;28;20030;-76
2023/02/23 02:03:31;;;;;;;0.65;0.52;;;18.40;70.50;;;;;;4995053;28;20349;-76
2023/02/23 02:05:57;;;;;;;1.58;0.47;;;18.40;70.60;;;;;;4995135;28;20034;-75
2023/02/23 02:08:23;;;;;;;2.58;0.40;;;18.40;70.60;;;;;;4994060;28;20113;-75
2023/02/23 02:10:56;;;;;;;0.90;0.50;;;18.30;70.70;;;;;;4975481;28;20106;-76
2023/02/23 02:13:24;;;;;;;0.50;0.30;;;18.30;70.70;;;;;;4976916;28;20039;-75
2023/02/23 02:16:04;;;;;;;1.27;0.50;;;18.30;70.80;;;;;;4959907;28;20030;-75
2023/02/23 02:18:56;;;;;;;0.65;0.40;;;18.30;70.90;;;;;;4976631;28;20078;-75
2023/02/23 02:21:41;;;;;;;1.55;0.50;;;18.30;70.90;;;;;;4983594;28;20511;-76
2023/02/23 02:24:15;;;;;;;1.13;0.65;;;18.20;70.80;;;;;;4994698;28;20102;-75
2023/02/23 02:26:56;;;;;;;0.85;0.57;;;18.20;70.90;;;;;;4994811;28;20037;-75
2023/02/23 02:29:25;;;;;;;0.60;0.32;;;18.20;70.80;;;;;;4994523;28;20011;-75
2023/02/23 02:32:24;;;;;;;0.85;0.40;;;18.20;71.00;;;;;;4995928;28;20469;-76
2023/02/23 02:34:53;;;;;;;0.30;0.22;;;18.20;71.00;;;;;;4995927;28;20030;-75
2023/02/23 02:37:43;;;;;;;0.90;0.40;;;18.10;71.00;;;;;;4995819;28;20026;-76
2023/02/23 02:40:22;;;;;;;6.90;0.40;;;18.10;71.00;;;;;;4995758;28;20046;-75
2023/02/23 02:42:48;;;;;;;1.70;0.35;;;18.10;71.10;;;;;;4980026;28;20057;-76
2023/02/23 02:45:32;;;;;;;0.60;0.43;;;18.10;71.10;;;;;;4995735;28;20061;-75
2023/02/23 02:48:05;;;;;;;1.40;0.50;;;18.10;71.10;;;;;;4995470;28;20132;-75
2023/02/23 02:50:48;;;;;;;1.20;0.57;;;18.10;71.20;;;;;;4994277;28;20034;-76
2023/02/23 02:53:21;;;;;;;1.98;0.50;;;18.00;71.10;;;;;;4979751;28;20034;-76
2023/02/23 02:55:47;;;;;;;1.45;0.32;;;18.00;71.20;;;;;;4978947;28;20018;-76
2023/02/23 02:58:12;;;;;;;1.85;0.40;;;18.00;71.20;;;;;;4977944;28;20473;-75
2023/02/23 04:17:54;;;;;;;1.88;0.25;;;17.60;72.30;;;;;;4945692;28;20070;-76
2023/02/23 04:20:20;;;;;;;2.95;0.50;;;17.50;72.30;;;;;;4972503;28;20058;-75
2023/02/23 04:22:46;;;;;;;1.30;0.30;;;17.50;72.40;;;;;;4972353;28;20121;-76
2023/02/23 04:25:13;;;;;;;1.63;0.60;;;17.50;72.20;;;;;;4972714;28;20056;-75
2023/02/23 04:27:38;;;;;;;0.47;0.40;;;17.50;72.40;;;;;;4973783;28;20038;-75
2023/02/23 04:30:05;;;;;;;1.77;0.50;;;17.50;72.40;;;;;;4973804;28;20109;-75
2023/02/23 04:32:30;;;;;;;0.40;0.30;;;17.50;72.40;;;;;;4973716;28;20058;-75
2023/02/23 04:34:56;;;;;;;1.52;0.38;;;17.40;72.40;;;;;;4972459;28;20047;-75
2023/02/23 04:37:22;;;;;;;2.17;0.80;;;17.40;72.40;;;;;;4973672;28;20034;-75
2023/02/23 04:39:49;;;;;;;1.80;0.40;;;17.40;72.50;;;;;;4973700;28;20388;-75
2023/02/23 04:42:15;;;;;;;1.23;0.43;;;17.40;72.60;;;;;;4973775;28;20027;-75
2023/02/23 04:44:41;;;;;;;0.85;0.45;;;17.40;72.70;;;;;;4972403;28;20078;-76
2023/02/23 04:47:07;;;;;;;0.57;0.35;;;17.40;72.70;;;;;;4973794;28;20027;-75
2023/02/23 04:49:32;;;;;;;1.77;0.32;;;17.40;72.80;;;;;;4972197;28;20082;-75
2023/02/23 04:51:58;;;;;;;0.20;0.20;;;17.40;72.90;;;;;;4973619;28;20080;-75
2023/02/23 04:54:24;;;;;;;1.02;0.50;;;17.40;72.70;;;;;;4973533;28;20478;-76
2023/02/23 04:56:50;;;;;;;1.10;0.40;;;17.40;72.90;;;;;;4973540;28;20043;-75
2023/02/23 04:59:15;;;;;;;0.95;0.55;;;17.30;72.80;;;;;;4973640;28;20564;-75
2023/02/23 05:01:41;;;;;;;0.32;0.30;;;17.30;72.80;;;;;;4984982;28;20026;-76
2023/02/23 05:04:07;;;;;;;1.85;0.40;;;17.30;72.90;;;;;;4992644;28;20023;-75
2023/02/23 05:06:33;;;;;;;0.47;0.45;;;17.30;72.90;;;;;;4992924;28;20031;-75
2023/02/23 05:08:58;;;;;;;5.55;0.47;;;17.30;72.90;;;;;;4991688;28;20503;-75
2023/02/23 05:11:25;;;;;;;1.48;0.40;;;17.30;73.00;;;;;;4992858;28;20030;-76
2023/02/23 05:13:51;;;;;;;0.43;0.30;;;17.20;73.00;;;;;;4992810;28;20023;-75
2023/02/23 05:16:17;;;;;;;0.82;0.43;;;17.30;73.10;;;;;;4992857;28;20037;-75
2023/02/23 05:18:42;;;;;;;0.57;0.43;;;17.30;73.10;;;;;;4992557;28;20026;-76
2023/02/23 05:21:09;;;;;;;0.75;0.40;;;17.30;73.00;;;;;;4991629;28;20050;-75
2023/02/23 05:23:35;;;;;;;1.02;0.40;;;17.20;73.00;;;;;;4991484;28;20068;-75
2023/02/23 05:26:03;;;;;;;0.93;0.43;;;17.20;73.20;;;;;;4991735;28;20030;-76
2023/02/23 05:28:28;;;;;;;0.95;0.60;;;17.20;73.10;;;;;;4992619;28;20037;-76
2023/02/23 05:30:54;;;;;;;1.80;0.30;;;17.20;73.10;;;;;;4991464;28;20027;-75
2023/02/23 05:33:20;;;;;;;1.63;0.30;;;17.20;73.20;;;;;;4992639;28;20029;-75
2023/02/23 05:35:47;;;;;;;4.22;0.40;;;17.20;73.30;;;;;;4995508;28;20380;-75
2023/02/23 05:38:12;;;;;;;0.98;0.50;;;17.20;73.20;;;;;;4996354;28;20090;-75
2023/02/23 05:40:38;;;;;;;0.50;0.50;;;17.20;73.20;;;;;;4996165;28;20127;-75
2023/02/23 05:43:04;;;;;;;0.50;0.40;;;17.20;73.20;;;;;;4996382;28;20025;-76
2023/02/23 05:45:30;;;;;;;0.73;0.38;;;17.10;73.40;;;;;;4995007;28;20026;-75
2023/02/23 05:47:56;;;;;;;0.93;0.38;;;17.10;73.30;;;;;;4994908;28;20118;-75
2023/02/23 05:50:21;;;;;;;0.50;0.32;;;17.10;73.40;;;;;;4996305;28;20092;-75
2023/02/23 05:52:47;;;;;;;1.40;0.57;;;17.10;73.40;;;;;;4996070;28;20052;-75
2023/02/23 05:55:12;;;;;;;0.82;0.52;;;17.10;73.40;;;;;;4996119;28;20034;-75
2023/02/23 05:57:39;;;;;;;1.23;0.50;;;17.10;73.40;;;;;;4995871;28;20026;-75
2023/02/23 06:00:06;;;;;;;3.55;0.50;;;17.10;73.40;;;;;;4994830;28;20046;-75
2023/02/23 06:02:31;;;;;;;1.17;0.30;;;17.10;73.40;;;;;;4994542;28;20030;-75
2023/02/23 06:04:57;;;;;;;0.73;0.25;;;17.10;73.50;;;;;;4995940;28;20125;-75
2023/02/23 06:07:23;;;;;;;0.45;0.40;;;17.00;73.50;;;;;;4995791;28;20483;-75
2023/02/23 06:09:48;;;;;;;1.95;0.55;;;17.00;73.50;;;;;;4995668;28;20026;-75
2023/02/23 06:12:14;;;;;;;0.47;0.32;;;17.00;73.50;;;;;;4994708;28;20026;-75
2023/02/23 06:14:39;;;;;;;0.77;0.30;;;17.00;73.60;;;;;;4995624;28;20489;-75
2023/02/23 06:17:06;;;;;;;0.70;0.43;;;17.00;73.60;;;;;;4995735;28;20023;-75
2023/02/23 06:19:32;;;;;;;0.70;0.40;;;17.00;73.50;;;;;;4995498;28;20033;-75
2023/02/23 06:21:57;;;;;;;0.70;0.30;;;17.00;74.60;;;;;;4994173;28;20042;-75
2023/02/23 06:24:23;;;;;;;0.32;0.20;;;16.90;73.50;;;;;;4994481;28;20037;-75
2023/02/23 06:26:49;;;;;;;1.85;0.30;;;17.00;73.70;;;;;;4995565;28;20396;-75
2023/02/23 06:29:15;;;;;;;1.52;0.50;;;17.00;73.70;;;;;;4994060;28;20030;-75
2023/02/23 06:31:41;;;;;;;1.05;0.40;;;16.90;73.70;;;;;;4995216;28;20018;-75
2023/02/23 06:34:07;;;;;;;0.77;0.28;;;16.90;73.60;;;;;;4995523;28;20031;-76
2023/02/23 06:36:32;;;;;;;0.40;0.25;;;16.90;73.70;;;;;;4993858;28;20026;-75
2023/02/23 06:38:58;;;;;;;0.52;0.35;;;16.90;73.70;;;;;;4995394;28;20137;-75
2023/02/23 06:41:24;;;;;;;2.90;0.40;;;16.90;73.90;;;;;;4995172;28;20026;-75
2023/02/23 06:43:50;;;;;;;0.40;0.20;;;16.90;73.80;;;;;;4994994;28;20112;-75
2023/02/23 06:46:16;;;;;;;0.30;0.30;;;16.90;73.90;;;;;;4993309;28;20026;-75
2023/02/23 06:48:42;;;;;;;1.52;0.47;;;16.90;73.80;;;;;;4993736;28;20550;-75
2023/02/23 06:51:08;;;;;;;0.90;0.30;;;16.90;73.90;;;;;;4995109;28;20027;-75
2023/02/23 06:53:34;;;;;;;2.10;0.40;;;16.80;73.90;;;;;;4995265;28;20121;-76
2023/02/23 06:56:00;;;;;;;1.00;0.50;;;16.80;74.00;;;;;;4993541;28;20058;-75
2023/02/23 06:58:27;;;;;;;2.05;0.30;;;16.90;74.00;;;;;;4995174;28;20046;-75
2023/02/23 07:00:55;;;;;;;0.88;0.38;;;16.80;73.90;;;;;;4993225;28;20021;-75
2023/02/23 07:03:21;;;;;;;0.77;0.50;;;16.80;74.00;;;;;;4993611;28;20022;-75
2023/02/23 07:05:48;;;;;;;0.80;0.40;;;16.80;73.90;;;;;;4993637;28;20026;-75
2023/02/23 07:08:15;;;;;;;1.58;0.40;;;16.80;74.00;;;;;;4994748;28;20030;-75
2023/02/23 07:10:41;;;;;;;2.38;0.30;;;16.80;74.00;;;;;;4973987;28;20047;-75
2023/02/23 07:13:06;;;;;;;0.77;0.43;;;16.80;74.00;;;;;;4974311;28;20457;-75
2023/02/23 07:15:34;;;;;;;1.38;0.30;;;16.80;74.10;;;;;;4975071;28;20452;-75
2023/02/23 07:18:00;;;;;;;0.90;0.52;;;16.80;74.10;;;;;;4973863;28;20034;-76
2023/02/23 07:20:25;;;;;;;0.73;0.40;;;16.80;74.00;;;;;;4975011;28;20026;-75
2023/02/23 07:22:51;;;;;;;4.47;0.45;;;16.80;74.00;;;;;;4994177;28;20121;-75
2023/02/23 07:25:17;;;;;;;1.58;0.40;;;16.80;73.20;;;;;;4994357;28;20015;-75
2023/02/23 07:27:44;;;;;;;0.95;0.50;;;16.80;72.30;;;;;;4993170;28;20377;-74
2023/02/23 07:30:10;;;;;;;0.30;0.30;;;16.70;71.40;;;;;;4994289;28;20048;-75
2023/02/23 07:32:36;;;;;;;0.55;0.40;;;16.70;70.60;;;;;;4993262;28;20030;-74
2023/02/23 07:35:02;;;;;;;0.63;0.30;;;16.70;70.50;;;;;;4993111;28;20392;-75
2023/02/23 07:37:28;;;;;;;0.60;0.40;;;16.70;70.20;;;;;;4994332;28;20110;-75
2023/02/23 07:39:54;;;;;;;2.15;0.50;;;16.80;70.00;;;;;;4993964;28;20150;-75
2023/02/23 07:42:19;;;;;;;1.02;0.60;;;16.70;69.90;;;;;;4993831;28;20046;-75
2023/02/23 07:44:45;;;;;;;1.65;0.40;;;16.70;70.70;;;;;;4992774;28;20022;-75
2023/02/23 07:47:10;;;;;;;1.65;0.25;;;16.80;69.60;;;;;;4994033;28;20377;-75
2023/02/23 07:49:36;;;;;;;2.28;0.50;;;16.70;69.40;;;;;;4993924;28;20115;-76
2023/02/23 07:52:02;;;;;;;3.88;0.52;;;16.70;69.50;;;;;;4993965;28;20070;-76
2023/02/23 07:54:27;;;;;;;46.00;7.05;;;16.70;69.20;;;;;;4992637;28;20030;-75
2023/02/23 07:56:53;;;;;;;44.22;6.93;;;16.80;69.80;;;;;;4993136;28;20033;-75
2023/02/23 07:59:18;;;;;;;33.35;5.35;;;16.70;70.40;;;;;;4992893;28;20029;-75
2023/02/23 08:01:44;;;;;;;33.55;6.03;;;16.80;70.70;;;;;;4993528;28;20519;-75
2023/02/23 08:04:10;;;;;;;55.63;7.05;;;16.80;71.00;;;;;;4993316;28;20027;-75
2023/02/23 08:06:35;;;;;;;32.67;5.95;;;16.80;71.20;;;;;;4992684;28;20038;-75
2023/02/23 08:09:02;;;;;;;28.63;5.75;;;16.80;71.40;;;;;;4993353;28;20672;-75
2023/02/23 08:11:28;;;;;;;33.05;5.50;;;16.80;71.50;;;;;;4991999;28;20031;-75
2023/02/23 08:13:58;;;;;;;28.95;5.32;;;16.80;71.60;;;;;;4989696;28;20088;-75
2023/02/23 08:16:26;;;;;;;24.77;4.80;;;16.80;71.60;;;;;;4984742;28;20049;-75
2023/02/23 08:18:51;;;;;;;27.45;5.18;;;16.80;71.60;;;;;;4979127;28;20042;-75
2023/02/23 08:21:17;;;;;;;27.13;4.60;;;16.80;71.50;;;;;;4972860;28;20078;-75
2023/02/23 08:23:43;;;;;;;21.48;4.18;;;16.80;71.50;;;;;;4991220;28;20025;-75
2023/02/23 08:26:10;;;;;;;20.70;4.60;;;16.80;71.40;;;;;;4993132;28;20033;-75
2023/02/23 08:28:36;;;;;;;25.25;5.00;;;16.80;71.30;;;;;;4993329;28;20385;-75
2023/02/23 08:31:01;;;;;;;21.55;4.18;;;16.80;71.30;;;;;;4984517;28;20089;-75
2023/02/23 08:33:27;;;;;;;15.00;3.95;;;16.80;71.20;;;;;;4973794;28;20118;-75
2023/02/23 08:35:53;;;;;;;17.17;3.08;;;16.80;71.30;;;;;;4973662;28;20027;-75
2023/02/23 08:38:18;;;;;;;15.25;3.60;;;16.80;71.20;;;;;;4973819;28;20045;-75
2023/02/23 08:40:44;;;;;;;14.85;3.45;;;16.80;71.10;;;;;;4973601;28;20029;-74
2023/02/23 08:43:09;;;;;;;20.20;3.63;;;16.90;71.10;;;;;;4973793;28;20023;-76
2023/02/23 08:45:37;;;;;;;15.70;3.65;;;16.90;71.10;;;;;;4973627;28;20035;-75
2023/02/23 08:48:03;;;;;;;10.45;3.28;;;16.90;71.00;;;;;;4979372;28;20022;-75
2023/02/23 08:50:28;;;;;;;11.00;3.30;;;16.90;71.00;;;;;;4993397;28;20041;-75
2023/02/23 08:52:54;;;;;;;7.97;2.65;;;16.80;70.90;;;;;;4992895;28;20057;-75
2023/02/23 08:55:20;;;;;;;15.88;3.10;;;16.90;70.80;;;;;;4991396;28;20030;-75
2023/02/23 08:57:46;;;;;;;11.73;3.10;;;16.80;70.70;;;;;;4991882;28;20485;-75
2023/02/23 09:00:15;;;;;;;9.98;2.92;;;16.90;70.70;;;;;;4992871;28;20037;-75
2023/02/23 09:02:41;;;;;;;10.52;2.70;;;16.90;70.70;;;;;;4992773;28;20027;-74
2023/02/23 09:05:07;;;;;;;9.80;3.10;;;16.90;70.60;;;;;;4991708;28;20026;-75
2023/02/23 09:07:33;;;;;;;11.55;2.75;;;16.90;70.50;;;;;;4991693;28;20143;-75
2023/02/23 09:09:59;;;;;;;10.88;2.58;;;16.90;70.50;;;;;;4994371;28;20105;-75
2023/02/23 09:12:24;;;;;;;9.98;3.10;;;16.90;70.50;;;;;;4995963;28;20022;-75
2023/02/23 09:14:52;;;;;;;10.07;2.60;;;16.80;70.30;;;;;;4996635;28;20034;-75
2023/02/23 09:17:18;;;;;;;10.93;2.60;;;16.90;70.30;;;;;;4995575;28;20101;-75
2023/02/23 09:19:44;;;;;;;8.45;2.90;;;16.90;70.30;;;;;;4996570;28;20547;-75
2023/02/23 09:22:09;;;;;;;6.63;2.10;;;16.90;70.20;;;;;;4996384;28;20050;-75
2023/02/23 09:24:35;;;;;;;10.95;2.63;;;16.90;70.20;;;;;;4995348;28;20031;-75
2023/02/23 09:27:01;;;;;;;7.40;2.67;;;16.90;71.20;;;;;;4996477;28;20022;-75
2023/02/23 09:29:26;;;;;;;8.85;2.83;;;16.90;71.10;;;;;;4995306;28;20018;-75
2023/02/23 09:31:52;;;;;;;8.18;2.05;;;16.90;70.00;;;;;;4996507;28;20030;-75
2023/02/23 09:34:18;;;;;;;8.73;2.45;;;16.80;70.00;;;;;;4996552;28;20033;-75
2023/02/23 09:36:44;;;;;;;6.05;2.15;;;16.90;70.00;;;;;;4995060;28;20033;-75
2023/02/23 09:39:09;;;;;;;7.90;2.40;;;16.90;70.00;;;;;;4995198;28;20097;-75
2023/02/23 09:42:07;;;;;;;6.65;2.28;;;16.90;69.90;;;;;;4996228;28;20392;-75
2023/02/23 09:44:45;;;;;;;5.60;1.98;;;16.90;69.90;;;;;;4996331;28;20484;-75
2023/02/23 09:47:23;;;;;;;8.77;2.53;;;16.90;69.80;;;;;;4996356;28;20027;-75
2023/02/23 09:49:49;;;;;;;6.70;2.05;;;16.90;69.70;;;;;;4995083;28;20053;-75
2023/02/23 09:52:24;;;;;;;11.32;3.25;;;16.90;69.80;;;;;;4994770;28;20477;-75
2023/02/23 09:54:50;;;;;;;4.38;1.60;;;16.90;69.80;;;;;;4994570;28;20064;-75
2023/02/23 09:57:23;;;;;;;7.22;1.90;;;16.90;69.70;;;;;;4995947;28;20089;-75
2023/02/23 09:59:48;;;;;;;6.10;1.85;;;16.90;69.60;;;;;;4994877;28;20035;-74
2023/02/23 10:02:22;;;;;;;7.00;1.70;;;16.90;69.60;;;;;;4995784;28;20033;-75
2023/02/23 10:04:50;;;;;;;5.82;1.70;;;16.90;69.60;;;;;;4978985;28;20022;-75
2023/02/23 10:07:25;;;;;;;6.70;1.90;;;16.90;69.60;;;;;;4994517;28;20023;-75
2023/02/23 10:09:57;;;;;;;5.68;2.00;;;16.90;69.50;;;;;;4979209;28;20022;-75
2023/02/23 10:12:31;;;;;;;7.45;1.65;;;16.90;69.50;;;;;;4994821;28;20512;-75
2023/02/23 10:15:00;;;;;;;5.68;1.70;;;16.90;69.40;;;;;;4994286;28;20034;-75
2023/02/23 10:18:02;;;;;;;3.40;1.40;;;16.90;69.40;;;;;;4995810;28;20049;-75
2023/02/23 10:20:56;;;;;;;7.07;1.60;;;16.90;69.30;;;;;;4995007;28;20097;-75
2023/02/23 10:23:40;;;;;;;2.80;1.50;;;16.90;69.30;;;;;;4994194;28;20117;-75
2023/02/23 10:26:07;;;;;;;4.30;1.77;;;16.90;69.40;;;;;;4994314;28;20050;-75
2023/02/23 10:28:35;;;;;;;4.75;1.70;;;16.90;69.20;;;;;;4994338;28;20508;-75
2023/02/23 10:31:01;;;;;;;4.40;1.80;;;16.90;69.20;;;;;;4995358;28;20045;-75
2023/02/23 10:33:33;;;;;;;5.03;1.58;;;16.90;69.20;;;;;;4994091;28;20489;-75
2023/02/23 10:36:27;;;;;;;3.60;1.50;;;16.90;69.30;;;;;;4994125;28;20035;-75
2023/02/23 10:38:52;;;;;;;3.35;1.48;;;16.90;69.20;;;;;;5026885;28;20031;-75
2023/02/23 10:41:18;;;;;;;3.42;1.73;;;16.90;69.10;;;;;;4994078;28;20033;-75
2023/02/23 10:43:44;;;;;;;4.57;1.30;;;16.90;69.20;;;;;;4994120;28;20101;-75
2023/02/23 10:46:16;;;;;;;4.28;1.55;;;16.90;69.10;;;;;;4993851;28;20030;-75
2023/02/23 10:48:42;;;;;;;5.55;1.45;;;16.90;69.10;;;;;;4994025;28;20023;-75
2023/02/23 10:51:20;;;;;;;3.08;1.45;;;16.90;69.10;;;;;;4993660;28;20041;-75
2023/02/23 10:53:46;;;;;;;4.57;1.50;;;17.00;69.10;;;;;;4993888;28;20054;-75
2023/02/23 10:56:16;;;;;;;4.63;1.65;;;16.90;69.10;;;;;;4993545;28;20066;-75
2023/02/23 10:58:42;;;;;;;4.00;1.40;;;17.00;69.10;;;;;;4993767;28;20146;-75
2023/02/23 11:01:07;;;;;;;3.50;1.33;;;16.90;69.00;;;;;;4994723;28;20038;-75
2023/02/23 11:03:36;;;;;;;2.65;1.20;;;17.00;70.10;;;;;;4993711;28;20456;-75
2023/02/23 11:06:01;;;;;;;4.50;1.25;;;17.00;69.00;;;;;;4993173;28;20031;-75
2023/02/23 11:08:34;;;;;;;2.15;1.23;;;16.90;69.00;;;;;;4993808;28;20033;-75
2023/02/23 11:11:04;;;;;;;4.15;1.27;;;17.00;69.10;;;;;;4993646;28;20539;-75
2023/02/23 11:13:35;;;;;;;2.30;1.23;;;17.00;69.00;;;;;;4994742;28;20034;-75
2023/02/23 11:16:20;;;;;;;4.07;1.23;;;17.00;68.90;;;;;;4993342;28;20041;-75
2023/02/23 11:18:56;;;;;;;3.20;1.38;;;17.00;69.00;;;;;;4993628;28;20033;-75
2023/02/23 11:21:33;;;;;;;2.58;1.05;;;17.00;69.00;;;;;;4992667;28;20070;-75
2023/02/23 11:24:38;;;;;;;3.35;1.00;;;17.00;69.00;;;;;;4993258;28;20014;-75
2023/02/23 11:27:05;;;;;;;1.88;0.90;;;16.90;68.90;;;;;;5025736;28;20039;-75
2023/02/23 11:29:37;;;;;;;4.03;1.38;;;16.90;68.90;;;;;;4993400;28;20028;-75
2023/02/23 11:32:12;;;;;;;3.42;1.38;;;17.00;68.90;;;;;;4993021;28;20405;-75
2023/02/23 11:34:42;;;;;;;3.45;1.17;;;17.00;68.90;;;;;;4992736;28;20018;-75
2023/02/23 11:37:20;;;;;;;2.40;1.30;;;17.00;68.90;;;;;;4993113;28;20026;-75
2023/02/23 11:39:57;;;;;;;2.08;0.98;;;17.00;68.90;;;;;;4994441;28;20057;-75
2023/02/23 11:42:26;;;;;;;2.28;1.00;;;17.00;68.90;;;;;;4993049;28;20096;-75
2023/02/23 11:45:05;;;;;;;1.30;1.05;;;17.00;69.00;;;;;;4992787;28;20054;-75
2023/02/23 11:47:31;;;;;;;1.65;0.80;;;17.00;68.90;;;;;;4992785;28;20019;-75
2023/02/23 11:49:57;;;;;;;2.10;0.82;;;17.00;68.90;;;;;;4992636;28;20026;-75
2023/02/23 11:52:23;;;;;;;1.58;0.93;;;17.00;68.80;;;;;;4992767;28;20045;-75
2023/02/23 11:55:00;;;;;;;1.88;0.73;;;17.00;68.80;;;;;;4992704;28;20034;-75
2023/02/23 11:57:32;;;;;;;2.45;1.13;;;17.00;68.80;;;;;;4992456;28;20015;-75
2023/02/23 11:59:59;;;;;;;1.88;0.90;;;17.00;68.80;;;;;;4993799;28;20025;-75
2023/02/23 12:02:28;;;;;;;2.60;1.00;;;17.00;68.80;;;;;;4992494;28;20034;-75
2023/02/23 12:05:05;;;;;;;2.03;0.93;;;17.00;68.80;;;;;;4992139;28;20100;-75
2023/02/23 12:07:37;;;;;;;1.67;0.93;;;17.00;68.70;;;;;;4992560;28;20037;-75
2023/02/23 12:10:06;;;;;;;2.65;1.00;;;17.00;68.70;;;;;;4992186;28;20038;-75
2023/02/23 12:12:39;;;;;;;2.65;0.90;;;17.00;68.70;;;;;;4993681;28;20547;-75
2023/02/23 12:15:10;;;;;;;1.45;0.68;;;17.00;68.70;;;;;;4992265;28;20026;-75
2023/02/23 12:17:40;;;;;;;1.75;1.05;;;17.00;68.70;;;;;;4992420;28;20496;-75
2023/02/23 12:20:20;;;;;;;2.33;0.70;;;17.00;68.60;;;;;;4992124;28;20033;-75
2023/02/23 12:22:53;;;;;;;1.17;0.80;;;17.10;68.70;;;;;;4992188;28;20030;-75
2023/02/23 12:25:39;;;;;;;0.93;0.63;;;17.00;68.70;;;;;;4992096;28;20027;-75
2023/02/23 12:28:36;;;;;;;1.52;0.88;;;17.10;68.70;;;;;;4992198;28;20023;-76
2023/02/23 12:31:25;;;;;;;2.17;0.95;;;17.00;68.70;;;;;;4992121;28;20026;-75
2023/02/23 12:33:54;;;;;;;1.75;0.98;;;17.00;68.60;;;;;;4992139;28;20023;-75
2023/02/23 12:36:50;;;;;;;2.55;1.08;;;17.10;68.70;;;;;;4991910;28;20029;-75
2023/02/23 12:39:21;;;;;;;1.38;0.70;;;17.00;68.60;;;;;;5026922;28;20041;-75
2023/02/23 12:42:25;;;;;;;2.03;0.95;;;17.10;68.70;;;;;;5010672;28;20036;-75
2023/02/23 12:45:01;;;;;;;2.03;0.90;;;17.10;68.60;;;;;;5026462;28;20107;-75
2023/02/23 12:47:30;;;;;;;1.17;0.70;;;17.10;68.70;;;;;;5026579;28;20026;-75
2023/02/23 12:50:18;;;;;;;1.13;0.93;;;17.10;68.60;;;;;;5010426;28;20536;-75
2023/02/23 12:52:57;;;;;;;1.15;0.90;;;17.10;68.60;;;;;;4996664;28;20034;-75
2023/02/23 12:55:47;;;;;;;0.85;0.70;;;17.10;68.60;;;;;;4994583;28;20029;-75
2023/02/23 12:58:20;;;;;;;1.30;0.75;;;17.10;68.70;;;;;;4996437;28;20048;-76
2023/02/23 13:00:52;;;;;;;2.28;0.90;;;17.10;68.70;;;;;;5022183;28;20026;-76
2023/02/23 13:03:30;;;;;;;1.00;0.75;;;17.10;68.60;;;;;;4974471;28;20571;-74
2023/02/23 13:06:16;;;;;;;0.85;0.70;;;17.10;68.60;;;;;;4974686;28;20030;-75
2023/02/23 13:09:19;;;;;;;1.33;0.73;;;17.10;68.60;;;;;;4990795;28;20038;-75
2023/02/23 13:11:50;;;;;;;0.70;0.70;;;17.10;68.60;;;;;;4990847;28;20030;-75
2023/02/23 13:14:26;;;;;;;0.88;0.60;;;17.10;68.60;;;;;;4974904;28;20034;-75
2023/02/23 13:16:56;;;;;;;2.05;1.02;;;17.10;68.60;;;;;;4971671;28;20413;-75
2023/02/23 13:19:29;;;;;;;1.58;0.80;;;17.10;68.60;;;;;;4972244;28;20054;-75
2023/02/23 13:22:34;;;;;;;0.75;0.60;;;17.10;68.60;;;;;;4976902;28;20129;-75
2023/02/23 13:25:01;;;;;;;1.02;0.80;;;17.10;68.50;;;;;;4992899;28;20034;-75
2023/02/23 13:27:33;;;;;;;0.60;0.60;;;17.10;68.50;;;;;;4991486;28;20427;-75
2023/02/23 13:29:59;;;;;;;1.92;1.00;;;17.10;68.50;;;;;;4991664;28;20456;-75
2023/02/23 13:32:28;;;;;;;0.93;0.80;;;17.10;68.50;;;;;;4991282;28;20161;-75
2023/02/23 13:34:56;;;;;;;1.27;0.70;;;17.10;68.60;;;;;;4991410;28;20037;-75
2023/02/23 13:37:25;;;;;;;0.82;0.68;;;17.10;68.50;;;;;;4991314;28;20019;-75
2023/02/23 13:40:16;;;;;;;0.95;0.52;;;17.10;68.50;;;;;;4991599;28;20104;-75
2023/02/23 13:43:05;;;;;;;1.27;0.90;;;17.20;68.50;;;;;;4991537;28;20113;-75
2023/02/23 13:45:55;;;;;;;0.82;0.68;;;17.10;68.50;;;;;;4991358;28;20030;-75
2023/02/23 13:48:44;;;;;;;0.60;0.60;;;17.10;68.50;;;;;;4991520;28;20384;-75
2023/02/23 13:51:16;;;;;;;0.98;0.70;;;17.10;68.50;;;;;;4991423;28;20026;-75
2023/02/23 13:53:45;;;;;;;1.05;0.80;;;17.20;68.50;;;;;;4991404;28;20054;-75
2023/02/23 13:56:15;;;;;;;1.23;0.70;;;17.10;68.40;;;;;;4993238;28;20105;-75
2023/02/23 13:58:45;;;;;;;0.82;0.80;;;17.10;68.40;;;;;;4996037;28;20022;-75
2023/02/23 14:01:19;;;;;;;1.15;0.65;;;17.10;68.50;;;;;;4994523;28;20049;-75
2023/02/23 14:03:53;;;;;;;0.80;0.77;;;17.10;68.40;;;;;;4994880;28;20485;-75
2023/02/23 14:06:19;;;;;;;1.48;0.70;;;17.20;68.50;;;;;;4994625;28;20026;-75
2023/02/23 14:08:49;;;;;;;0.82;0.63;;;17.10;68.40;;;;;;4994736;28;20072;-75
2023/02/23 14:11:47;;;;;;;0.77;0.60;;;17.20;68.50;;;;;;4994578;28;20057;-76
2023/02/23 14:14:33;;;;;;;0.77;0.63;;;17.20;68.50;;;;;;5012880;28;20037;-75
2023/02/23 14:17:11;;;;;;;2.30;0.85;;;17.20;68.40;;;;;;4999984;28;20046;-75